createdAt,value
2023-01-13T00:00:20.194Z,12.40
2023-01-13T00:05:43.432Z,13.53
2023-01-13T00:10:49.520Z,12.98
2023-01-13T00:16:02.895Z,10.96
2023-01-13T00:21:13.893Z,9.70
2023-01-13T00:26:21.928Z,10.83
2023-01-13T00:31:25.412Z,12.52
2023-01-13T00:36:29.735Z,13.25
2023-01-13T00:41:52.922Z,12.87
2023-01-13T00:46:56.116Z,10.80
2023-01-13T00:51:59.416Z,10.18
2023-01-13T00:57:02.761Z,11.97
2023-01-13T01:02:06.033Z,13.14
2023-01-13T01:07:09.468Z,13.69
2023-01-13T01:12:12.771Z,13.10
2023-01-13T01:17:15.890Z,11.04
2023-01-13T01:22:19.074Z,9.77
2023-01-13T01:27:22.287Z,10.00
2023-01-13T01:32:25.600Z,11.98
2023-01-13T01:37:28.807Z,13.02
2023-01-13T01:42:51.057Z,13.56
2023-01-13T01:48:02.915Z,14.11
2023-01-13T01:53:13.570Z,13.52
2023-01-13T01:58:29.183Z,11.30
2023-01-13T02:03:33.600Z,10.43
2023-01-13T02:08:40.734Z,12.19
2023-01-13T02:13:43.901Z,14.03
2023-01-13T02:19:11.996Z,14.68
2023-01-13T02:24:54.444Z,13.59
2023-01-13T02:30:26.924Z,11.04
2023-01-13T02:35:55.724Z,11.08
2023-01-13T02:41:34.056Z,13.65
2023-01-13T02:46:50.792Z,14.66
2023-01-13T02:52:05.572Z,14.32
2023-01-13T02:57:13.248Z,11.75
2023-01-13T03:02:21.948Z,11.17
2023-01-13T03:08:00.648Z,13.56
2023-01-13T03:13:30.070Z,14.65
2023-01-13T03:19:01.848Z,15.16
2023-01-13T03:24:12.223Z,13.64
2023-01-13T03:29:31.202Z,11.25
2023-01-13T03:35:02.467Z,11.31
2023-01-13T03:40:20.116Z,13.77
2023-01-13T03:45:23.327Z,14.72
2023-01-13T03:50:37.466Z,14.81
2023-01-13T03:56:01.602Z,12.38
2023-01-13T04:01:12.128Z,10.42
2023-01-13T04:07:00.642Z,11.78
2023-01-13T04:13:01.093Z,13.94
2023-01-13T04:18:14.537Z,14.71
2023-01-13T04:23:19.179Z,14.92
2023-01-13T04:28:23.949Z,12.91
2023-01-13T04:33:27.030Z,11.48
2023-01-13T04:38:30.254Z,13.52
2023-01-13T04:43:33.348Z,14.53
2023-01-13T04:48:36.902Z,14.62
2023-01-13T04:53:40.176Z,12.50
2023-01-13T04:58:43.280Z,11.42
2023-01-13T05:03:46.286Z,12.78
2023-01-13T05:08:51.279Z,13.57
2023-01-13T05:14:13.176Z,13.91
2023-01-13T05:19:17.183Z,14.08
2023-01-13T05:24:39.578Z,14.09
2023-01-13T05:29:42.707Z,14.12
2023-01-13T05:34:45.884Z,14.14
2023-01-13T05:40:08.138Z,14.15
2023-01-13T05:45:12.750Z,14.10
2023-01-13T05:50:16.764Z,14.05
2023-01-13T05:55:19.829Z,14.08
2023-01-13T06:00:23.223Z,14.05
2023-01-13T06:05:26.644Z,14.11
2023-01-13T06:10:30.869Z,14.23
2023-01-13T06:15:33.981Z,14.34
2023-01-13T06:20:37.292Z,14.34
2023-01-13T06:25:52.201Z,14.24
2023-01-13T06:31:03.812Z,14.29
2023-01-13T06:36:36.581Z,14.32
2023-01-13T06:41:59.351Z,14.20
2023-01-13T06:47:02.756Z,14.24
2023-01-13T06:52:06.416Z,14.27
2023-01-13T06:57:10.200Z,14.32
2023-01-13T07:02:13.341Z,14.31
2023-01-13T07:07:16.524Z,14.43
2023-01-13T07:12:19.515Z,14.10
2023-01-13T07:17:25.616Z,12.19
2023-01-13T07:22:29.027Z,13.25
2023-01-13T07:27:32.225Z,13.81
2023-01-13T07:32:35.423Z,14.04
2023-01-13T07:37:39.752Z,14.06
2023-01-13T07:43:01.634Z,14.18
2023-01-13T07:48:05.539Z,14.28
2023-01-13T07:53:08.640Z,14.40
2023-01-13T07:58:11.744Z,14.47
2023-01-13T08:03:14.955Z,14.41
2023-01-13T08:08:18.879Z,14.40
2023-01-13T08:13:21.978Z,14.34
2023-01-13T08:18:25.193Z,14.48
2023-01-13T08:23:28.622Z,14.58
2023-01-13T08:28:32.070Z,14.44
2023-01-13T08:33:35.335Z,14.63
2023-01-13T08:38:39.296Z,14.91
2023-01-13T08:43:42.358Z,14.93
2023-01-13T08:48:45.486Z,14.90
2023-01-13T08:53:48.672Z,13.07
2023-01-13T08:58:51.879Z,11.63
2023-01-13T09:03:56.111Z,13.10
2023-01-13T09:09:00.143Z,14.59
2023-01-13T09:14:04.262Z,15.44
2023-01-13T09:19:07.287Z,14.77
2023-01-13T09:24:11.245Z,12.34
2023-01-13T09:29:15.143Z,12.69
2023-01-13T09:34:39.940Z,13.72
2023-01-13T09:39:43.595Z,14.24
2023-01-13T09:44:59.681Z,14.57
2023-01-13T09:50:22.136Z,14.67
2023-01-13T09:55:29.031Z,14.83
2023-01-13T10:00:55.686Z,14.90
2023-01-13T10:06:35.376Z,14.89
2023-01-13T10:12:03.346Z,15.03
2023-01-13T10:17:34.419Z,15.06
2023-01-13T10:23:03.929Z,14.99
2023-01-13T10:28:14.818Z,15.06
2023-01-13T10:33:27.686Z,15.02
2023-01-13T10:38:38.535Z,15.09
2023-01-13T10:44:09.385Z,15.07
2023-01-13T10:49:36.668Z,15.16
2023-01-13T10:54:52.986Z,14.86
2023-01-13T10:59:57.172Z,12.69
2023-01-13T11:05:21.522Z,12.72
2023-01-13T11:10:32.771Z,14.82
2023-01-13T11:15:41.759Z,15.45
2023-01-13T11:20:49.683Z,14.49
2023-01-13T11:26:02.766Z,12.92
2023-01-13T11:31:27.594Z,14.79
2023-01-13T11:36:51.634Z,15.81
2023-01-13T11:42:24.448Z,15.22
2023-01-13T11:47:29.130Z,12.55
2023-01-13T11:53:19.002Z,13.16
2023-01-13T11:59:08.681Z,15.37
2023-01-13T12:04:26.238Z,15.45
2023-01-13T12:09:55.857Z,12.85
2023-01-13T12:15:08.795Z,12.62
2023-01-13T12:20:36.065Z,14.39
2023-01-13T12:25:52.684Z,14.92
2023-01-13T12:31:03.014Z,15.15
2023-01-13T12:37:04.751Z,15.30
2023-01-13T12:42:39.492Z,14.18
2023-01-13T12:47:46.487Z,11.88
2023-01-13T12:53:22.048Z,11.87
2023-01-13T12:58:29.295Z,13.72
2023-01-13T13:03:35.634Z,14.41
2023-01-13T13:09:14.479Z,14.69
2023-01-13T13:14:37.602Z,14.94
2023-01-13T13:19:42.507Z,15.20
2023-01-13T13:24:51.556Z,15.29
2023-01-13T13:30:03.263Z,14.63
2023-01-13T13:35:34.077Z,12.40
2023-01-13T13:41:04.992Z,12.16
2023-01-13T13:46:47.334Z,13.93
2023-01-13T13:52:07.515Z,14.85
2023-01-13T13:57:22.401Z,15.31
2023-01-13T14:02:31.752Z,14.87
2023-01-13T14:07:48.666Z,12.72
2023-01-13T14:12:53.078Z,12.43
2023-01-13T14:17:56.267Z,14.45
2023-01-13T14:23:01.743Z,15.46
2023-01-13T14:28:40.878Z,15.89
2023-01-13T14:33:48.996Z,14.09
2023-01-13T14:39:04.477Z,12.00
2023-01-13T14:44:27.661Z,12.01
2023-01-13T14:49:36.144Z,14.27
2023-01-13T14:54:52.801Z,15.15
2023-01-13T15:00:15.887Z,15.61
2023-01-13T15:05:19.243Z,14.99
2023-01-13T15:10:38.586Z,12.68
2023-01-13T15:15:41.722Z,11.22
2023-01-13T15:20:45.328Z,12.61
2023-01-13T15:25:49.391Z,14.13
2023-01-13T15:30:55.616Z,14.80
2023-01-13T15:35:58.930Z,15.08
2023-01-13T15:41:02.124Z,15.23
2023-01-13T15:46:33.261Z,15.30
2023-01-13T15:51:37.319Z,14.23
2023-01-13T15:56:42.301Z,12.10
2023-01-13T16:01:46.441Z,11.76
2023-01-13T16:06:49.714Z,13.50
2023-01-13T16:11:52.932Z,14.38
2023-01-13T16:16:55.977Z,14.95
2023-01-13T16:21:59.956Z,15.48
2023-01-13T16:27:22.435Z,14.87
2023-01-13T16:32:25.563Z,12.38
2023-01-13T16:37:30.000Z,12.09
2023-01-13T16:42:33.217Z,14.36
2023-01-13T16:47:36.808Z,15.35
2023-01-13T16:52:39.853Z,14.56
2023-01-13T16:57:43.084Z,12.18
2023-01-13T17:02:46.686Z,11.66
2023-01-13T17:07:49.812Z,13.18
2023-01-13T17:12:53.006Z,13.89
2023-01-13T17:17:57.341Z,14.34
2023-01-13T17:23:00.561Z,14.73
2023-01-13T17:28:04.297Z,14.95
2023-01-13T17:33:07.487Z,13.76
2023-01-13T17:38:10.582Z,12.00
2023-01-13T17:43:13.717Z,13.07
2023-01-13T17:48:16.818Z,13.85
2023-01-13T17:53:21.072Z,14.23
2023-01-13T17:58:24.446Z,14.51
2023-01-13T18:03:27.672Z,14.97
2023-01-13T18:08:30.970Z,13.67
2023-01-13T18:13:35.448Z,11.61
2023-01-13T18:18:41.551Z,11.94
2023-01-13T18:24:03.654Z,13.35
2023-01-13T18:29:07.276Z,13.97
2023-01-13T18:34:11.093Z,14.02
2023-01-13T18:39:14.401Z,14.17
2023-01-13T18:44:17.687Z,14.38
2023-01-13T18:49:20.997Z,13.83
2023-01-13T18:54:24.334Z,11.77
2023-01-13T18:59:28.391Z,11.53
2023-01-13T19:04:32.872Z,13.59
2023-01-13T19:09:36.100Z,13.98
2023-01-13T19:14:40.731Z,13.98
2023-01-13T19:19:47.628Z,13.40
2023-01-13T19:24:51.138Z,11.38
2023-01-13T19:29:58.830Z,11.17
2023-01-13T19:35:02.173Z,13.31
2023-01-13T19:40:09.435Z,13.70
2023-01-13T19:45:30.750Z,13.70
2023-01-13T19:50:41.388Z,12.25
2023-01-13T19:55:48.595Z,10.93
2023-01-13T20:00:54.060Z,12.67
2023-01-13T20:06:10.577Z,13.38
2023-01-13T20:11:32.107Z,13.54
2023-01-13T20:16:35.233Z,12.85
2023-01-13T20:21:40.081Z,10.77
2023-01-13T20:26:45.398Z,10.73
2023-01-13T20:31:49.933Z,12.55
2023-01-13T20:36:53.792Z,12.88
2023-01-13T20:42:16.390Z,13.02
2023-01-13T20:47:19.654Z,13.35
2023-01-13T20:52:22.895Z,12.74
2023-01-13T20:57:26.185Z,10.58
2023-01-13T21:02:29.896Z,9.15
2023-01-13T21:07:33.122Z,9.87
2023-01-13T21:12:55.151Z,11.55
2023-01-13T21:18:17.221Z,12.38
2023-01-13T21:23:20.519Z,12.76
2023-01-13T21:28:23.625Z,12.89
2023-01-13T21:33:26.728Z,12.31
2023-01-13T21:38:30.403Z,10.10
2023-01-13T21:43:55.384Z,8.68
2023-01-13T21:48:58.677Z,9.33
2023-01-13T21:54:01.993Z,10.99
2023-01-13T21:59:05.304Z,11.87
2023-01-13T22:04:14.710Z,12.22
2023-01-13T22:09:18.168Z,12.37
2023-01-13T22:14:22.807Z,12.09
2023-01-13T22:19:26.022Z,10.05
2023-01-13T22:24:30.461Z,8.52
2023-01-13T22:29:33.665Z,8.51
2023-01-13T22:34:37.077Z,10.30
2023-01-13T22:39:40.706Z,11.23
2023-01-13T22:44:44.118Z,11.70
2023-01-13T22:49:48.143Z,12.02
2023-01-13T22:54:51.141Z,12.00
2023-01-13T22:59:54.266Z,10.23
2023-01-13T23:04:57.585Z,9.51
2023-01-13T23:10:00.669Z,10.80
2023-01-13T23:15:05.606Z,11.47
2023-01-13T23:20:10.100Z,11.84
2023-01-13T23:25:13.158Z,11.34
2023-01-13T23:30:16.572Z,9.28
2023-01-13T23:35:19.703Z,7.91
2023-01-13T23:40:23.090Z,7.91
2023-01-13T23:45:27.025Z,9.93
2023-01-13T23:50:30.226Z,11.17
2023-01-13T23:55:33.741Z,11.74
